sensor_id;sensor_type;location;lat;lon;timestamp;P1;durP1;ratioP1;P2;durP2;ratioP2
9465;SDS011;4771;48.726;9.006;2023-11-22T00:01:25;6.60;;;5.10;;
9465;SDS011;4771;48.726;9.006;2023-11-22T00:03:53;6.00;;;4.73;;
9465;SDS011;4771;48.726;9.006;2023-11-22T00:06:20;5.93;;;4.77;;
9465;SDS011;4771;48.726;9.006;2023-11-22T00:08:47;6.07;;;4.90;;
9465;SDS011;4771;48.726;9.006;2023-11-22T00:11:14;7.73;;;5.37;;
9465;SDS011;4771;48.726;9.006;2023-11-22T00:13:41;8.47;;;5.27;;
9465;SDS011;4771;48.726;9.006;2023-11-22T00:16:07;7.13;;;5.13;;
9465;SDS011;4771;48.726;9.006;2023-11-22T00:18:35;3.27;;;2.80;;
9465;SDS011;4771;48.726;9.006;2023-11-22T00:21:05;3.50;;;2.30;;
9465;SDS011;4771;48.726;9.006;2023-11-22T00:23:32;2.37;;;2.10;;
9465;SDS011;4771;48.726;9.006;2023-11-22T00:25:58;3.00;;;1.60;;
9465;SDS011;4771;48.726;9.006;2023-11-22T00:28:25;3.27;;;1.83;;
9465;SDS011;4771;48.726;9.006;2023-11-22T00:30:52;2.00;;;1.60;;
9465;SDS011;4771;48.726;9.006;2023-11-22T00:33:19;1.70;;;1.60;;
9465;SDS011;4771;48.726;9.006;2023-11-22T00:35:46;2.83;;;1.90;;
9465;SDS011;4771;48.726;9.006;2023-11-22T00:38:14;2.23;;;1.90;;
9465;SDS011;4771;48.726;9.006;2023-11-22T00:40:41;2.50;;;2.20;;
9465;SDS011;4771;48.726;9.006;2023-11-22T00:43:08;2.57;;;2.30;;
9465;SDS011;4771;48.726;9.006;2023-11-22T00:45:35;2.57;;;2.33;;
9465;SDS011;4771;48.726;9.006;2023-11-22T00:48:02;2.80;;;2.60;;
9465;SDS011;4771;48.726;9.006;2023-11-22T00:50:29;2.93;;;2.63;;
9465;SDS011;4771;48.726;9.006;2023-11-22T00:52:55;4.13;;;2.60;;
9465;SDS011;4771;48.726;9.006;2023-11-22T00:55:24;6.23;;;3.40;;
9465;SDS011;4771;48.726;9.006;2023-11-22T00:57:52;3.33;;;3.03;;
9465;SDS011;4771;48.726;9.006;2023-11-22T01:00:28;5.70;;;3.20;;
9465;SDS011;4771;48.726;9.006;2023-11-22T01:02:55;3.57;;;3.27;;
9465;SDS011;4771;48.726;9.006;2023-11-22T01:05:24;3.77;;;3.37;;
9465;SDS011;4771;48.726;9.006;2023-11-22T01:07:51;4.03;;;3.60;;
9465;SDS011;4771;48.726;9.006;2023-11-22T01:10:18;4.77;;;3.60;;
9465;SDS011;4771;48.726;9.006;2023-11-22T01:12:46;3.67;;;3.20;;
9465;SDS011;4771;48.726;9.006;2023-11-22T01:15:13;4.47;;;3.63;;
9465;SDS011;4771;48.726;9.006;2023-11-22T01:17:40;3.97;;;3.57;;
9465;SDS011;4771;48.726;9.006;2023-11-22T01:20:07;3.77;;;3.37;;
9465;SDS011;4771;48.726;9.006;2023-11-22T01:22:36;3.90;;;3.50;;
9465;SDS011;4771;48.726;9.006;2023-11-22T01:25:04;5.57;;;3.47;;
9465;SDS011;4771;48.726;9.006;2023-11-22T01:27:31;4.10;;;3.60;;
9465;SDS011;4771;48.726;9.006;2023-11-22T01:29:59;4.30;;;3.60;;
9465;SDS011;4771;48.726;9.006;2023-11-22T01:32:28;4.70;;;4.00;;
9465;SDS011;4771;48.726;9.006;2023-11-22T01:34:55;4.10;;;3.70;;
9465;SDS011;4771;48.726;9.006;2023-11-22T01:37:24;3.93;;;3.40;;
9465;SDS011;4771;48.726;9.006;2023-11-22T01:39:50;3.80;;;3.40;;
9465;SDS011;4771;48.726;9.006;2023-11-22T01:42:19;4.00;;;3.47;;
9465;SDS011;4771;48.726;9.006;2023-11-22T01:44:46;6.13;;;3.70;;
9465;SDS011;4771;48.726;9.006;2023-11-22T01:47:14;3.47;;;3.13;;
9465;SDS011;4771;48.726;9.006;2023-11-22T01:49:41;3.90;;;3.50;;
9465;SDS011;4771;48.726;9.006;2023-11-22T01:52:08;3.60;;;3.30;;
9465;SDS011;4771;48.726;9.006;2023-11-22T01:54:35;3.83;;;3.20;;
9465;SDS011;4771;48.726;9.006;2023-11-22T01:57:03;4.00;;;3.27;;
9465;SDS011;4771;48.726;9.006;2023-11-22T01:59:33;4.00;;;3.43;;
9465;SDS011;4771;48.726;9.006;2023-11-22T02:02:00;3.87;;;3.30;;
9465;SDS011;4771;48.726;9.006;2023-11-22T02:04:30;3.50;;;3.20;;
9465;SDS011;4771;48.726;9.006;2023-11-22T02:06:56;3.70;;;3.40;;
9465;SDS011;4771;48.726;9.006;2023-11-22T02:09:23;3.47;;;3.10;;
9465;SDS011;4771;48.726;9.006;2023-11-22T02:11:50;4.17;;;3.53;;
9465;SDS011;4771;48.726;9.006;2023-11-22T02:14:17;3.27;;;2.97;;
9465;SDS011;4771;48.726;9.006;2023-11-22T02:16:44;3.33;;;3.03;;
9465;SDS011;4771;48.726;9.006;2023-11-22T02:19:13;3.20;;;2.90;;
9465;SDS011;4771;48.726;9.006;2023-11-22T02:21:43;3.47;;;2.80;;
9465;SDS011;4771;48.726;9.006;2023-11-22T02:24:11;3.07;;;2.60;;
9465;SDS011;4771;48.726;9.006;2023-11-22T02:26:42;3.33;;;3.03;;
9465;SDS011;4771;48.726;9.006;2023-11-22T02:29:10;5.40;;;2.97;;
9465;SDS011;4771;48.726;9.006;2023-11-22T02:31:39;3.10;;;2.80;;
9465;SDS011;4771;48.726;9.006;2023-11-22T02:34:08;3.97;;;3.10;;
9465;SDS011;4771;48.726;9.006;2023-11-22T02:36:35;3.50;;;3.17;;
9465;SDS011;4771;48.726;9.006;2023-11-22T02:39:02;4.80;;;3.27;;
9465;SDS011;4771;48.726;9.006;2023-11-22T02:41:30;3.70;;;3.23;;
9465;SDS011;4771;48.726;9.006;2023-11-22T02:43:57;3.90;;;3.40;;
9465;SDS011;4771;48.726;9.006;2023-11-22T02:46:24;3.90;;;3.40;;
9465;SDS011;4771;48.726;9.006;2023-11-22T02:48:51;3.27;;;2.97;;
9465;SDS011;4771;48.726;9.006;2023-11-22T02:51:19;3.73;;;3.33;;
9465;SDS011;4771;48.726;9.006;2023-11-22T02:53:46;4.90;;;3.23;;
9465;SDS011;4771;48.726;9.006;2023-11-22T02:56:15;3.80;;;3.27;;
9465;SDS011;4771;48.726;9.006;2023-11-22T02:58:44;4.27;;;3.20;;
9465;SDS011;4771;48.726;9.006;2023-11-22T03:01:11;4.10;;;3.20;;
9465;SDS011;4771;48.726;9.006;2023-11-22T03:03:38;3.30;;;3.00;;
9465;SDS011;4771;48.726;9.006;2023-11-22T03:06:05;3.87;;;3.30;;
9465;SDS011;4771;48.726;9.006;2023-11-22T03:08:32;3.47;;;3.03;;
9465;SDS011;4771;48.726;9.006;2023-11-22T03:10:59;3.77;;;3.10;;
9465;SDS011;4771;48.726;9.006;2023-11-22T03:13:27;3.93;;;3.20;;
9465;SDS011;4771;48.726;9.006;2023-11-22T03:15:55;6.87;;;3.77;;
9465;SDS011;4771;48.726;9.006;2023-11-22T03:18:22;4.27;;;3.30;;
9465;SDS011;4771;48.726;9.006;2023-11-22T03:20:49;4.27;;;3.50;;
9465;SDS011;4771;48.726;9.006;2023-11-22T03:23:19;4.83;;;3.57;;
9465;SDS011;4771;48.726;9.006;2023-11-22T03:25:46;4.43;;;3.93;;
9465;SDS011;4771;48.726;9.006;2023-11-22T03:28:13;4.70;;;3.30;;
9465;SDS011;4771;48.726;9.006;2023-11-22T03:30:40;4.40;;;3.30;;
9465;SDS011;4771;48.726;9.006;2023-11-22T03:33:08;4.23;;;3.83;;
9465;SDS011;4771;48.726;9.006;2023-11-22T03:35:35;4.33;;;3.57;;
9465;SDS011;4771;48.726;9.006;2023-11-22T03:38:02;4.80;;;3.77;;
9465;SDS011;4771;48.726;9.006;2023-11-22T03:40:29;4.17;;;3.57;;
9465;SDS011;4771;48.726;9.006;2023-11-22T03:42:56;5.93;;;3.70;;
9465;SDS011;4771;48.726;9.006;2023-11-22T03:45:22;3.93;;;3.37;;
9465;SDS011;4771;48.726;9.006;2023-11-22T03:47:49;5.50;;;4.00;;
9465;SDS011;4771;48.726;9.006;2023-11-22T03:50:18;4.20;;;3.60;;
9465;SDS011;4771;48.726;9.006;2023-11-22T03:52:44;5.07;;;3.77;;
9465;SDS011;4771;48.726;9.006;2023-11-22T03:55:11;5.80;;;3.57;;
9465;SDS011;4771;48.726;9.006;2023-11-22T03:57:39;6.80;;;4.10;;
9465;SDS011;4771;48.726;9.006;2023-11-22T04:00:06;4.73;;;3.97;;
9465;SDS011;4771;48.726;9.006;2023-11-22T04:02:34;5.17;;;3.90;;
9465;SDS011;4771;48.726;9.006;2023-11-22T04:05:01;4.87;;;4.13;;
9465;SDS011;4771;48.726;9.006;2023-11-22T04:07:29;4.23;;;3.80;;
9465;SDS011;4771;48.726;9.006;2023-11-22T04:09:57;4.57;;;3.97;;
9465;SDS011;4771;48.726;9.006;2023-11-22T04:12:24;5.57;;;4.17;;
9465;SDS011;4771;48.726;9.006;2023-11-22T04:14:51;4.57;;;3.90;;
9465;SDS011;4771;48.726;9.006;2023-11-22T04:17:18;4.97;;;3.97;;
9465;SDS011;4771;48.726;9.006;2023-11-22T04:19:45;4.73;;;4.23;;
9465;SDS011;4771;48.726;9.006;2023-11-22T04:22:12;4.10;;;3.70;;
9465;SDS011;4771;48.726;9.006;2023-11-22T04:24:40;6.33;;;4.00;;
9465;SDS011;4771;48.726;9.006;2023-11-22T04:27:07;4.63;;;4.10;;
9465;SDS011;4771;48.726;9.006;2023-11-22T04:29:34;9.57;;;4.57;;
9465;SDS011;4771;48.726;9.006;2023-11-22T04:32:01;4.60;;;3.83;;
9465;SDS011;4771;48.726;9.006;2023-11-22T04:34:28;7.10;;;4.20;;
9465;SDS011;4771;48.726;9.006;2023-11-22T04:36:55;4.60;;;4.10;;
9465;SDS011;4771;48.726;9.006;2023-11-22T04:39:22;4.87;;;3.70;;
9465;SDS011;4771;48.726;9.006;2023-11-22T04:41:50;5.00;;;3.80;;
9465;SDS011;4771;48.726;9.006;2023-11-22T04:44:17;5.03;;;4.03;;
9465;SDS011;4771;48.726;9.006;2023-11-22T04:46:44;4.93;;;3.97;;
9465;SDS011;4771;48.726;9.006;2023-11-22T04:49:11;7.27;;;3.87;;
9465;SDS011;4771;48.726;9.006;2023-11-22T04:51:38;6.20;;;3.87;;
9465;SDS011;4771;48.726;9.006;2023-11-22T04:54:05;6.00;;;3.47;;
9465;SDS011;4771;48.726;9.006;2023-11-22T04:56:32;5.00;;;3.40;;
9465;SDS011;4771;48.726;9.006;2023-11-22T04:59:00;5.03;;;4.17;;
9465;SDS011;4771;48.726;9.006;2023-11-22T05:01:31;3.83;;;3.50;;
9465;SDS011;4771;48.726;9.006;2023-11-22T05:03:58;4.50;;;3.10;;
9465;SDS011;4771;48.726;9.006;2023-11-22T05:06:25;3.67;;;3.27;;
9465;SDS011;4771;48.726;9.006;2023-11-22T05:08:52;4.20;;;3.80;;
9465;SDS011;4771;48.726;9.006;2023-11-22T05:11:19;4.67;;;3.73;;
9465;SDS011;4771;48.726;9.006;2023-11-22T05:13:46;4.83;;;3.43;;
9465;SDS011;4771;48.726;9.006;2023-11-22T05:16:16;4.33;;;3.40;;
9465;SDS011;4771;48.726;9.006;2023-11-22T05:18:43;4.40;;;3.47;;
9465;SDS011;4771;48.726;9.006;2023-11-22T05:21:10;3.40;;;3.10;;
9465;SDS011;4771;48.726;9.006;2023-11-22T05:23:37;5.37;;;3.40;;
9465;SDS011;4771;48.726;9.006;2023-11-22T05:26:04;3.60;;;3.07;;
9465;SDS011;4771;48.726;9.006;2023-11-22T05:28:30;7.00;;;3.90;;
9465;SDS011;4771;48.726;9.006;2023-11-22T05:30:58;6.63;;;4.80;;
9465;SDS011;4771;48.726;9.006;2023-11-22T05:33:26;16.60;;;10.43;;
9465;SDS011;4771;48.726;9.006;2023-11-22T05:35:53;4.80;;;4.10;;
9465;SDS011;4771;48.726;9.006;2023-11-22T05:38:20;4.63;;;3.83;;
9465;SDS011;4771;48.726;9.006;2023-11-22T05:40:47;5.63;;;3.70;;
9465;SDS011;4771;48.726;9.006;2023-11-22T05:43:14;5.00;;;4.10;;
9465;SDS011;4771;48.726;9.006;2023-11-22T05:45:41;4.47;;;3.57;;
9465;SDS011;4771;48.726;9.006;2023-11-22T05:48:08;3.93;;;3.53;;
9465;SDS011;4771;48.726;9.006;2023-11-22T05:50:36;4.57;;;3.63;;
9465;SDS011;4771;48.726;9.006;2023-11-22T05:53:03;4.87;;;3.40;;
9465;SDS011;4771;48.726;9.006;2023-11-22T05:55:29;3.93;;;3.33;;
9465;SDS011;4771;48.726;9.006;2023-11-22T05:57:57;4.63;;;3.00;;
9465;SDS011;4771;48.726;9.006;2023-11-22T06:00:24;3.80;;;3.30;;
9465;SDS011;4771;48.726;9.006;2023-11-22T06:02:51;3.40;;;3.10;;
9465;SDS011;4771;48.726;9.006;2023-11-22T06:05:18;4.37;;;3.33;;
9465;SDS011;4771;48.726;9.006;2023-11-22T06:07:46;3.77;;;3.40;;
9465;SDS011;4771;48.726;9.006;2023-11-22T06:10:13;4.97;;;4.13;;
9465;SDS011;4771;48.726;9.006;2023-11-22T06:12:40;4.07;;;3.50;;
9465;SDS011;4771;48.726;9.006;2023-11-22T06:15:09;4.30;;;3.40;;
9465;SDS011;4771;48.726;9.006;2023-11-22T06:17:36;4.80;;;3.43;;
9465;SDS011;4771;48.726;9.006;2023-11-22T06:20:03;3.53;;;3.07;;
9465;SDS011;4771;48.726;9.006;2023-11-22T06:22:32;3.50;;;3.10;;
9465;SDS011;4771;48.726;9.006;2023-11-22T06:25:00;4.23;;;3.30;;
9465;SDS011;4771;48.726;9.006;2023-11-22T06:27:27;4.00;;;3.20;;
9465;SDS011;4771;48.726;9.006;2023-11-22T06:29:54;5.43;;;3.70;;
9465;SDS011;4771;48.726;9.006;2023-11-22T06:32:21;4.10;;;3.53;;
9465;SDS011;4771;48.726;9.006;2023-11-22T06:34:47;5.07;;;3.23;;
9465;SDS011;4771;48.726;9.006;2023-11-22T06:37:14;5.93;;;4.10;;
9465;SDS011;4771;48.726;9.006;2023-11-22T06:39:41;5.53;;;4.20;;
9465;SDS011;4771;48.726;9.006;2023-11-22T06:42:09;4.83;;;4.10;;
9465;SDS011;4771;48.726;9.006;2023-11-22T06:44:36;5.37;;;3.77;;
9465;SDS011;4771;48.726;9.006;2023-11-22T06:47:03;4.83;;;4.00;;
9465;SDS011;4771;48.726;9.006;2023-11-22T06:49:30;3.90;;;3.23;;
9465;SDS011;4771;48.726;9.006;2023-11-22T06:51:57;5.40;;;3.67;;
9465;SDS011;4771;48.726;9.006;2023-11-22T06:54:24;4.37;;;3.30;;
9465;SDS011;4771;48.726;9.006;2023-11-22T06:56:51;5.57;;;3.40;;
9465;SDS011;4771;48.726;9.006;2023-11-22T06:59:20;3.67;;;3.27;;
9465;SDS011;4771;48.726;9.006;2023-11-22T07:01:46;3.97;;;2.90;;
9465;SDS011;4771;48.726;9.006;2023-11-22T07:04:13;5.23;;;3.40;;
9465;SDS011;4771;48.726;9.006;2023-11-22T07:06:40;4.83;;;3.83;;
9465;SDS011;4771;48.726;9.006;2023-11-22T07:09:07;6.47;;;3.90;;
9465;SDS011;4771;48.726;9.006;2023-11-22T07:11:35;5.93;;;3.63;;
9465;SDS011;4771;48.726;9.006;2023-11-22T07:14:03;4.40;;;3.20;;
9465;SDS011;4771;48.726;9.006;2023-11-22T07:16:32;4.27;;;3.37;;
9465;SDS011;4771;48.726;9.006;2023-11-22T07:18:59;4.10;;;3.03;;
9465;SDS011;4771;48.726;9.006;2023-11-22T07:21:28;4.67;;;3.47;;
9465;SDS011;4771;48.726;9.006;2023-11-22T07:23:55;5.07;;;3.43;;
9465;SDS011;4771;48.726;9.006;2023-11-22T07:26:24;4.60;;;3.73;;
9465;SDS011;4771;48.726;9.006;2023-11-22T07:28:51;3.87;;;3.47;;
9465;SDS011;4771;48.726;9.006;2023-11-22T07:31:18;3.63;;;3.30;;
9465;SDS011;4771;48.726;9.006;2023-11-22T07:33:49;5.83;;;4.63;;
9465;SDS011;4771;48.726;9.006;2023-11-22T07:36:16;5.53;;;2.80;;
9465;SDS011;4771;48.726;9.006;2023-11-22T07:38:45;3.43;;;2.97;;
9465;SDS011;4771;48.726;9.006;2023-11-22T07:41:13;2.90;;;2.60;;
9465;SDS011;4771;48.726;9.006;2023-11-22T07:43:41;3.00;;;2.60;;
9465;SDS011;4771;48.726;9.006;2023-11-22T07:46:09;4.80;;;2.90;;
9465;SDS011;4771;48.726;9.006;2023-11-22T07:48:37;3.00;;;2.70;;
9465;SDS011;4771;48.726;9.006;2023-11-22T07:51:07;4.00;;;2.83;;
9465;SDS011;4771;48.726;9.006;2023-11-22T07:53:34;3.50;;;2.80;;
9465;SDS011;4771;48.726;9.006;2023-11-22T07:56:01;3.30;;;3.00;;
9465;SDS011;4771;48.726;9.006;2023-11-22T07:58:29;7.47;;;3.17;;
9465;SDS011;4771;48.726;9.006;2023-11-22T08:00:56;3.30;;;2.80;;
9465;SDS011;4771;48.726;9.006;2023-11-22T08:03:24;3.50;;;2.87;;
9465;SDS011;4771;48.726;9.006;2023-11-22T08:05:51;3.63;;;2.63;;
9465;SDS011;4771;48.726;9.006;2023-11-22T08:08:21;4.40;;;2.87;;
9465;SDS011;4771;48.726;9.006;2023-11-22T08:10:49;3.20;;;2.70;;
9465;SDS011;4771;48.726;9.006;2023-11-22T08:13:18;4.27;;;2.80;;
9465;SDS011;4771;48.726;9.006;2023-11-22T08:15:48;4.10;;;2.50;;
9465;SDS011;4771;48.726;9.006;2023-11-22T08:18:15;3.13;;;2.63;;
9465;SDS011;4771;48.726;9.006;2023-11-22T08:20:42;4.00;;;3.23;;
9465;SDS011;4771;48.726;9.006;2023-11-22T08:23:09;3.13;;;2.73;;
9465;SDS011;4771;48.726;9.006;2023-11-22T08:25:39;4.93;;;3.10;;
9465;SDS011;4771;48.726;9.006;2023-11-22T08:28:06;3.87;;;3.00;;
9465;SDS011;4771;48.726;9.006;2023-11-22T08:30:33;5.13;;;3.57;;
9465;SDS011;4771;48.726;9.006;2023-11-22T08:33:00;3.90;;;2.63;;
9465;SDS011;4771;48.726;9.006;2023-11-22T08:35:27;4.07;;;3.13;;
9465;SDS011;4771;48.726;9.006;2023-11-22T08:37:54;4.00;;;2.83;;
9465;SDS011;4771;48.726;9.006;2023-11-22T08:40:23;3.80;;;2.80;;
9465;SDS011;4771;48.726;9.006;2023-11-22T08:42:52;5.20;;;3.00;;
9465;SDS011;4771;48.726;9.006;2023-11-22T08:45:19;3.60;;;3.00;;
9465;SDS011;4771;48.726;9.006;2023-11-22T08:47:46;3.43;;;2.80;;
9465;SDS011;4771;48.726;9.006;2023-11-22T08:50:15;3.67;;;2.90;;
9465;SDS011;4771;48.726;9.006;2023-11-22T08:52:42;3.47;;;2.93;;
9465;SDS011;4771;48.726;9.006;2023-11-22T08:55:10;4.23;;;2.97;;
9465;SDS011;4771;48.726;9.006;2023-11-22T08:57:37;3.63;;;3.00;;
9465;SDS011;4771;48.726;9.006;2023-11-22T09:00:07;3.47;;;2.90;;
9465;SDS011;4771;48.726;9.006;2023-11-22T09:02:36;3.20;;;2.90;;
9465;SDS011;4771;48.726;9.006;2023-11-22T09:05:04;4.03;;;3.03;;
9465;SDS011;4771;48.726;9.006;2023-11-22T09:07:33;3.97;;;3.10;;
9465;SDS011;4771;48.726;9.006;2023-11-22T09:10:00;4.80;;;3.30;;
9465;SDS011;4771;48.726;9.006;2023-11-22T09:12:34;6.00;;;3.33;;
9465;SDS011;4771;48.726;9.006;2023-11-22T09:15:03;4.20;;;3.30;;
9465;SDS011;4771;48.726;9.006;2023-11-22T09:17:35;4.17;;;2.70;;
9465;SDS011;4771;48.726;9.006;2023-11-22T09:20:04;6.97;;;3.20;;
9465;SDS011;4771;48.726;9.006;2023-11-22T09:22:36;4.77;;;3.07;;
9465;SDS011;4771;48.726;9.006;2023-11-22T09:25:04;4.47;;;3.30;;
9465;SDS011;4771;48.726;9.006;2023-11-22T09:27:34;4.53;;;3.33;;
9465;SDS011;4771;48.726;9.006;2023-11-22T09:30:02;3.30;;;3.00;;
9465;SDS011;4771;48.726;9.006;2023-11-22T09:32:31;3.67;;;3.13;;
9465;SDS011;4771;48.726;9.006;2023-11-22T09:34:59;3.77;;;3.23;;
9465;SDS011;4771;48.726;9.006;2023-11-22T09:37:25;5.80;;;3.10;;
9465;SDS011;4771;48.726;9.006;2023-11-22T09:39:52;4.30;;;3.43;;
9465;SDS011;4771;48.726;9.006;2023-11-22T09:42:19;5.57;;;3.50;;
9465;SDS011;4771;48.726;9.006;2023-11-22T09:44:46;4.40;;;3.50;;
9465;SDS011;4771;48.726;9.006;2023-11-22T09:47:13;5.73;;;3.30;;
9465;SDS011;4771;48.726;9.006;2023-11-22T09:49:44;4.50;;;3.17;;
9465;SDS011;4771;48.726;9.006;2023-11-22T09:52:15;14.07;;;9.80;;
9465;SDS011;4771;48.726;9.006;2023-11-22T09:54:48;5.40;;;4.20;;
9465;SDS011;4771;48.726;9.006;2023-11-22T09:57:16;4.07;;;3.57;;
9465;SDS011;4771;48.726;9.006;2023-11-22T09:59:46;6.00;;;3.30;;
9465;SDS011;4771;48.726;9.006;2023-11-22T10:02:17;5.30;;;3.60;;
9465;SDS011;4771;48.726;9.006;2023-11-22T10:04:45;3.70;;;3.20;;
9465;SDS011;4771;48.726;9.006;2023-11-22T10:07:12;4.30;;;3.00;;
9465;SDS011;4771;48.726;9.006;2023-11-22T10:09:41;3.97;;;3.40;;
9465;SDS011;4771;48.726;9.006;2023-11-22T10:12:09;4.37;;;3.20;;
9465;SDS011;4771;48.726;9.006;2023-11-22T10:14:40;4.60;;;3.40;;
9465;SDS011;4771;48.726;9.006;2023-11-22T10:17:07;6.73;;;3.57;;
9465;SDS011;4771;48.726;9.006;2023-11-22T10:19:35;6.40;;;3.77;;
9465;SDS011;4771;48.726;9.006;2023-11-22T10:22:02;4.63;;;3.87;;
9465;SDS011;4771;48.726;9.006;2023-11-22T10:24:30;5.10;;;4.17;;
9465;SDS011;4771;48.726;9.006;2023-11-22T10:26:59;4.40;;;3.67;;
9465;SDS011;4771;48.726;9.006;2023-11-22T10:29:27;6.77;;;4.20;;
9465;SDS011;4771;48.726;9.006;2023-11-22T10:31:54;4.30;;;3.60;;
9465;SDS011;4771;48.726;9.006;2023-11-22T10:34:22;4.93;;;3.60;;
9465;SDS011;4771;48.726;9.006;2023-11-22T10:36:50;4.57;;;3.50;;
9465;SDS011;4771;48.726;9.006;2023-11-22T10:39:18;5.27;;;3.93;;
9465;SDS011;4771;48.726;9.006;2023-11-22T10:41:45;5.00;;;4.17;;
9465;SDS011;4771;48.726;9.006;2023-11-22T10:44:13;4.87;;;4.03;;
9465;SDS011;4771;48.726;9.006;2023-11-22T10:46:42;5.43;;;3.90;;
9465;SDS011;4771;48.726;9.006;2023-11-22T10:49:10;5.50;;;3.73;;
9465;SDS011;4771;48.726;9.006;2023-11-22T10:51:37;4.70;;;3.97;;
9465;SDS011;4771;48.726;9.006;2023-11-22T10:54:06;5.50;;;3.90;;
9465;SDS011;4771;48.726;9.006;2023-11-22T10:56:36;4.93;;;4.00;;
9465;SDS011;4771;48.726;9.006;2023-11-22T10:59:08;5.90;;;4.30;;
9465;SDS011;4771;48.726;9.006;2023-11-22T11:01:39;4.63;;;3.83;;
9465;SDS011;4771;48.726;9.006;2023-11-22T11:04:11;5.63;;;4.03;;
9465;SDS011;4771;48.726;9.006;2023-11-22T11:06:46;5.37;;;4.10;;
9465;SDS011;4771;48.726;9.006;2023-11-22T11:09:18;5.80;;;3.93;;
9465;SDS011;4771;48.726;9.006;2023-11-22T11:11:49;7.53;;;4.00;;
9465;SDS011;4771;48.726;9.006;2023-11-22T11:14:16;4.50;;;3.60;;
9465;SDS011;4771;48.726;9.006;2023-11-22T11:16:45;7.13;;;4.67;;
9465;SDS011;4771;48.726;9.006;2023-11-22T11:19:15;4.37;;;3.60;;
9465;SDS011;4771;48.726;9.006;2023-11-22T11:21:43;6.70;;;4.40;;
9465;SDS011;4771;48.726;9.006;2023-11-22T11:24:10;8.80;;;4.67;;
9465;SDS011;4771;48.726;9.006;2023-11-22T11:26:37;6.00;;;4.50;;
9465;SDS011;4771;48.726;9.006;2023-11-22T11:29:04;5.63;;;4.50;;
9465;SDS011;4771;48.726;9.006;2023-11-22T11:31:33;5.13;;;4.17;;
9465;SDS011;4771;48.726;9.006;2023-11-22T11:34:06;6.23;;;4.23;;
9465;SDS011;4771;48.726;9.006;2023-11-22T11:36:33;9.87;;;4.67;;
9465;SDS011;4771;48.726;9.006;2023-11-22T11:39:05;7.67;;;5.20;;
9465;SDS011;4771;48.726;9.006;2023-11-22T11:41:34;5.83;;;4.13;;
9465;SDS011;4771;48.726;9.006;2023-11-22T11:44:02;5.53;;;4.70;;
9465;SDS011;4771;48.726;9.006;2023-11-22T11:46:30;4.93;;;4.37;;
9465;SDS011;4771;48.726;9.006;2023-11-22T11:48:58;5.13;;;3.87;;
9465;SDS011;4771;48.726;9.006;2023-11-22T11:51:28;6.03;;;4.30;;
9465;SDS011;4771;48.726;9.006;2023-11-22T11:53:55;5.17;;;4.47;;
9465;SDS011;4771;48.726;9.006;2023-11-22T11:56:22;5.90;;;4.67;;
9465;SDS011;4771;48.726;9.006;2023-11-22T11:58:51;8.10;;;4.50;;
9465;SDS011;4771;48.726;9.006;2023-11-22T12:01:23;6.40;;;4.67;;
9465;SDS011;4771;48.726;9.006;2023-11-22T12:03:51;5.07;;;4.23;;
9465;SDS011;4771;48.726;9.006;2023-11-22T12:06:18;5.03;;;4.40;;
9465;SDS011;4771;48.726;9.006;2023-11-22T12:08:47;7.67;;;4.97;;
9465;SDS011;4771;48.726;9.006;2023-11-22T12:11:14;5.57;;;4.30;;
9465;SDS011;4771;48.726;9.006;2023-11-22T12:13:43;6.80;;;4.43;;
9465;SDS011;4771;48.726;9.006;2023-11-22T12:16:13;5.67;;;4.40;;
9465;SDS011;4771;48.726;9.006;2023-11-22T12:18:42;6.40;;;4.43;;
9465;SDS011;4771;48.726;9.006;2023-11-22T12:21:09;4.70;;;4.20;;
9465;SDS011;4771;48.726;9.006;2023-11-22T12:23:38;5.23;;;4.50;;
9465;SDS011;4771;48.726;9.006;2023-11-22T12:26:10;5.83;;;4.67;;
9465;SDS011;4771;48.726;9.006;2023-11-22T12:28:39;6.67;;;4.43;;
9465;SDS011;4771;48.726;9.006;2023-11-22T12:31:06;5.67;;;4.53;;
9465;SDS011;4771;48.726;9.006;2023-11-22T12:33:35;5.70;;;4.53;;
9465;SDS011;4771;48.726;9.006;2023-11-22T12:36:02;6.23;;;4.50;;
9465;SDS011;4771;48.726;9.006;2023-11-22T12:38:29;5.87;;;4.70;;
9465;SDS011;4771;48.726;9.006;2023-11-22T12:40:56;6.67;;;5.30;;
9465;SDS011;4771;48.726;9.006;2023-11-22T12:43:25;6.80;;;4.47;;
9465;SDS011;4771;48.726;9.006;2023-11-22T12:45:58;5.90;;;4.27;;
9465;SDS011;4771;48.726;9.006;2023-11-22T12:48:26;5.07;;;4.40;;
9465;SDS011;4771;48.726;9.006;2023-11-22T12:50:55;6.53;;;4.43;;
9465;SDS011;4771;48.726;9.006;2023-11-22T12:53:23;6.27;;;4.57;;
9465;SDS011;4771;48.726;9.006;2023-11-22T12:55:52;5.80;;;4.50;;
9465;SDS011;4771;48.726;9.006;2023-11-22T12:58:20;7.33;;;4.80;;
9465;SDS011;4771;48.726;9.006;2023-11-22T13:00:49;5.47;;;4.20;;
9465;SDS011;4771;48.726;9.006;2023-11-22T13:03:22;8.60;;;5.00;;
9465;SDS011;4771;48.726;9.006;2023-11-22T13:05:50;7.00;;;4.40;;
9465;SDS011;4771;48.726;9.006;2023-11-22T13:08:18;6.00;;;4.60;;
9465;SDS011;4771;48.726;9.006;2023-11-22T13:10:47;5.90;;;4.50;;
9465;SDS011;4771;48.726;9.006;2023-11-22T13:13:18;8.13;;;4.87;;
9465;SDS011;4771;48.726;9.006;2023-11-22T13:15:45;8.40;;;4.50;;
9465;SDS011;4771;48.726;9.006;2023-11-22T13:18:14;7.77;;;4.33;;
9465;SDS011;4771;48.726;9.006;2023-11-22T13:20:41;5.90;;;4.50;;
9465;SDS011;4771;48.726;9.006;2023-11-22T13:23:09;10.53;;;4.80;;
9465;SDS011;4771;48.726;9.006;2023-11-22T13:25:37;5.40;;;4.30;;
9465;SDS011;4771;48.726;9.006;2023-11-22T13:28:04;7.17;;;5.17;;
9465;SDS011;4771;48.726;9.006;2023-11-22T13:30:31;6.13;;;4.63;;
9465;SDS011;4771;48.726;9.006;2023-11-22T13:32:58;7.80;;;4.30;;
9465;SDS011;4771;48.726;9.006;2023-11-22T13:35:27;6.63;;;4.90;;
9465;SDS011;4771;48.726;9.006;2023-11-22T13:37:56;7.67;;;4.60;;
9465;SDS011;4771;48.726;9.006;2023-11-22T13:40:24;6.97;;;5.43;;
9465;SDS011;4771;48.726;9.006;2023-11-22T13:42:55;7.50;;;4.90;;
9465;SDS011;4771;48.726;9.006;2023-11-22T13:45:22;14.27;;;5.20;;
9465;SDS011;4771;48.726;9.006;2023-11-22T13:47:50;7.03;;;4.57;;
9465;SDS011;4771;48.726;9.006;2023-11-22T13:50:22;7.83;;;4.90;;
9465;SDS011;4771;48.726;9.006;2023-11-22T13:52:53;5.90;;;4.60;;
9465;SDS011;4771;48.726;9.006;2023-11-22T13:55:21;5.87;;;4.37;;
9465;SDS011;4771;48.726;9.006;2023-11-22T13:57:48;6.63;;;4.67;;
9465;SDS011;4771;48.726;9.006;2023-11-22T14:00:16;5.63;;;4.23;;
9465;SDS011;4771;48.726;9.006;2023-11-22T14:02:45;9.23;;;4.60;;
9465;SDS011;4771;48.726;9.006;2023-11-22T14:05:11;7.60;;;4.80;;
9465;SDS011;4771;48.726;9.006;2023-11-22T14:07:39;7.80;;;5.03;;
9465;SDS011;4771;48.726;9.006;2023-11-22T14:10:07;5.53;;;4.43;;
9465;SDS011;4771;48.726;9.006;2023-11-22T14:12:36;6.97;;;4.60;;
9465;SDS011;4771;48.726;9.006;2023-11-22T14:15:03;10.27;;;5.90;;
9465;SDS011;4771;48.726;9.006;2023-11-22T14:17:31;52.07;;;23.33;;
9465;SDS011;4771;48.726;9.006;2023-11-22T14:19:58;46.63;;;22.40;;
9465;SDS011;4771;48.726;9.006;2023-11-22T14:22:25;20.13;;;11.27;;
9465;SDS011;4771;48.726;9.006;2023-11-22T14:24:52;6.37;;;4.80;;
9465;SDS011;4771;48.726;9.006;2023-11-22T14:27:21;5.67;;;4.53;;
9465;SDS011;4771;48.726;9.006;2023-11-22T14:29:48;6.63;;;5.93;;
9465;SDS011;4771;48.726;9.006;2023-11-22T14:32:16;5.40;;;4.90;;
9465;SDS011;4771;48.726;9.006;2023-11-22T14:34:44;6.63;;;5.20;;
9465;SDS011;4771;48.726;9.006;2023-11-22T14:37:12;6.90;;;6.20;;
9465;SDS011;4771;48.726;9.006;2023-11-22T14:39:42;8.20;;;6.33;;
9465;SDS011;4771;48.726;9.006;2023-11-22T14:42:09;6.60;;;4.90;;
9465;SDS011;4771;48.726;9.006;2023-11-22T14:44:38;5.80;;;4.37;;
9465;SDS011;4771;48.726;9.006;2023-11-22T14:47:04;5.90;;;4.50;;
9465;SDS011;4771;48.726;9.006;2023-11-22T14:49:37;5.57;;;4.40;;
9465;SDS011;4771;48.726;9.006;2023-11-22T14:52:04;5.27;;;4.40;;
9465;SDS011;4771;48.726;9.006;2023-11-22T14:54:31;5.27;;;4.63;;
9465;SDS011;4771;48.726;9.006;2023-11-22T14:56:58;5.70;;;4.63;;
9465;SDS011;4771;48.726;9.006;2023-11-22T14:59:25;5.70;;;4.70;;
9465;SDS011;4771;48.726;9.006;2023-11-22T15:01:55;6.77;;;4.60;;
9465;SDS011;4771;48.726;9.006;2023-11-22T15:04:22;9.03;;;4.70;;
9465;SDS011;4771;48.726;9.006;2023-11-22T15:06:48;7.13;;;4.97;;
9465;SDS011;4771;48.726;9.006;2023-11-22T15:09:15;5.97;;;4.67;;
9465;SDS011;4771;48.726;9.006;2023-11-22T15:11:43;6.53;;;4.40;;
9465;SDS011;4771;48.726;9.006;2023-11-22T15:14:10;5.00;;;4.10;;
9465;SDS011;4771;48.726;9.006;2023-11-22T15:16:37;6.37;;;4.03;;
9465;SDS011;4771;48.726;9.006;2023-11-22T15:19:06;5.27;;;4.13;;